Dienstweiler (461 m) : 26.09.2017
Datum Zeit
(MESZ)
Temp.
(2 m)
Temp.
(20 cm)
Luftfeuchte Blattnässe Nieder-
schlag
Wind Zeit
(MESZ)
[°C] [°C] [%] [%] [mm] [m/s]
26.09.2017 05:10 10.0 9.5 100 100 0.0 0.1 05:10
  05:05 10.0 9.4 100 100 0.0 0.1 05:05
  05:00 9.6 9.0 100 100 0.0 0.1 05:00
  04:55 9.1 8.7 100 100 0.0 0.0 04:55
  04:50 9.1 8.8 100 100 0.0 0.0 04:50
  04:45 9.1 8.7 100 100 0.0 0.0 04:45
  04:40 9.0 8.6 100 100 0.0 0.0 04:40
  04:35 9.0 8.4 100 100 0.0 0.0 04:35
  04:30 8.9 8.3 100 100 0.0 0.0 04:30
  04:25 8.8 8.4 100 100 0.0 0.0 04:25
  04:20 8.8 8.5 100 100 0.0 0.0 04:20
  04:15 8.8 8.5 100 100 0.0 0.0 04:15
  04:10 8.8 8.5 100 100 0.0 0.0 04:10
  04:05 8.7 8.4 100 100 0.0 0.0 04:05
  04:00 8.7 8.4 100 100 0.0 0.0 04:00
  03:55 8.9 8.7 100 100 0.0 0.0 03:55
  03:50 9.4 8.9 100 100 0.0 0.1 03:50
  03:45 8.8 8.7 100 100 0.0 0.0 03:45
  03:40 9.1 9.2 100 100 0.0 0.0 03:40
  03:35 11.3 10.6 100 87 0.0 1.1 03:35
  03:30 11.4 10.6 100 82 0.0 1.5 03:30
  03:25 11.5 10.7 100 83 0.0 1.3 03:25
  03:20 11.5 10.6 100 84 0.0 1.2 03:20
  03:15 11.4 10.6 100 87 0.0 0.9 03:15
26.09.2017 03:10 11.3 10.5 100 91 0.0 0.7 03:10
  03:05 11.4 10.5 100 91 0.0 1.1 03:05
  03:00 11.3 10.2 100 98 0.0 1.4 03:00
  02:55 10.4 9.3 100 100 0.0 0.5 02:55
  02:50 10.7 9.5 100 100 0.0 0.6 02:50
  02:45 9.2 8.6 100 100 0.0 0.0 02:45
  02:40 10.3 9.5 100 100 0.0 0.4 02:40
  02:35 11.4 10.3 100 100 0.0 1.5 02:35
  02:30 11.4 10.1 100 100 0.0 1.7 02:30
  02:25 11.1 9.9 100 100 0.0 1.3 02:25
  02:20 10.6 9.4 100 100 0.0 0.8 02:20
  02:15 10.9 9.8 100 100 0.0 0.7 02:15
  02:10 11.3 10.0 100 100 0.0 1.4 02:10
  02:05 11.3 9.9 100 100 0.0 1.5 02:05
  02:00 10.5 8.9 100 100 0.0 0.6 02:00
  01:55 10.1 9.0 100 100 0.0 0.3 01:55
  01:50 11.4 9.8 100 100 0.0 1.5 01:50
  01:45 9.9 8.6 100 100 0.0 0.5 01:45
  01:40 9.0 8.3 100 100 0.0 0.0 01:40
  01:35 9.1 8.5 100 100 0.0 0.0 01:35
  01:30 9.1 8.6 100 100 0.0 0.0 01:30
  01:25 9.4 8.6 100 100 0.0 0.0 01:25
  01:20 9.2 8.7 100 100 0.0 0.0 01:20
  01:15 9.3 8.7 100 100 0.0 0.0 01:15
26.09.2017 01:10 9.3 8.8 100 100 0.0 0.0 01:10
  01:05 9.3 8.6 100 100 0.0 0.0 01:05
  01:00 9.4 8.8 100 100 0.0 0.0 01:00
  00:55 9.5 9.2 100 100 0.0 0.0 00:55
  00:50 9.9 9.2 100 100 0.0 0.0 00:50
  00:45 10.1 9.2 100 100 0.0 0.0 00:45
  00:40 9.9 9.3 100 100 0.0 0.0 00:40
  00:35 11.4 10.0 100 100 0.0 0.6 00:35
  00:30 11.3 9.6 100 100 0.0 0.7 00:30
  00:25 10.4 8.7 100 100 0.0 0.1 00:25
  00:20 9.8 8.6 100 100 0.0 0.0 00:20
  00:15 9.9 8.9 100 100 0.0 0.0 00:15
  00:10 10.3 8.6 100 100 0.0 0.0 00:10
  00:05 9.8 8.6 100 100 0.0 0.0 00:05
  00:00 9.9 8.6 100 100 0.0 0.0 00:00
25.09.2017 23:55 10.4 8.6 100 100 0.0 0.0 23:55
  23:50 10.4 9.1 100 100 0.0 0.0 23:50
  23:45 11.0 9.7 100 100 0.0 0.1 23:45
  23:40 12.0 10.2 100 100 0.0 0.8 23:40
  23:35 11.9 9.5 100 100 0.0 0.9 23:35
  23:30 11.0 8.2 100 100 0.0 0.1 23:30
  23:25 10.8 8.8 100 100 0.0 0.0 23:25
  23:20 10.5 8.8 100 100 0.0 0.0 23:20
  23:15 10.7 9.0 100 100 0.0 0.0 23:15
  23:10 10.6 9.5 100 100 0.0 0.0 23:10
  23:05 11.0 9.2 100 100 0.0 0.0 23:05
  23:00 11.3 9.3 100 100 0.0 0.0 23:00
  22:55 11.0 9.3 100 100 0.0 0.0 22:55
  22:50 10.7 9.4 100 100 0.0 0.0 22:50
  22:45 10.6 9.3 100 100 0.0 0.0 22:45
  22:40 10.5 9.4 100 100 0.0 0.0 22:40
  22:35 10.5 9.3 100 100 0.0 0.0 22:35
  22:30 10.4 9.2 100 100 0.0 0.0 22:30
  22:25 10.6 9.2 99 100 0.0 0.0 22:25
  22:20 10.9 9.6 97 100 0.0 0.0 22:20
  22:15 11.4 10.1 95 100 0.0 0.0 22:15
  22:10 11.8 10.6 92 50 0.0 0.4 22:10
  22:05 12.5 11.0 92 22 0.0 1.3 22:05
  22:00 12.7 11.1 92 22 0.0 1.4 22:00
25.09.2017 21:55 12.7 11.2 91 21 0.0 1.5 21:55
  21:50 12.7 11.1 91 21 0.0 1.6 21:50
  21:45 12.8 11.1 91 21 0.0 1.7 21:45
  21:40 12.8 11.1 91 21 0.0 1.3 21:40
  21:35 12.9 11.2 90 21 0.0 1.1 21:35
  21:30 12.9 11.3 90 20 0.0 1.0 21:30
  21:25 12.9 11.4 90 19 0.0 1.2 21:25
  21:20 12.9 11.4 89 19 0.0 1.2 21:20
  21:15 13.0 11.4 89 18 0.0 1.4 21:15
  21:10 13.1 11.4 89 18 0.0 0.9 21:10
  21:05 13.3 11.7 89 17 0.0 1.5 21:05
  21:00 13.1 11.5 89 17 0.0 1.3 21:00
  20:55 13.1 11.5 89 17 0.0 1.3 20:55
  20:50 13.2 11.4 88 17 0.0 1.0 20:50
  20:45 13.2 11.4 88 17 0.0 0.8 20:45
  20:40 13.2 11.6 87 16 0.0 0.4 20:40
  20:35 13.3 11.7 87 15 0.0 0.7 20:35
  20:30 13.4 12.0 86 14 0.0 0.9 20:30
  20:25 13.4 12.1 85 14 0.0 0.8 20:25
  20:20 13.5 12.3 85 13 0.0 0.6 20:20
  20:15 13.7 12.6 84 12 0.0 0.8 20:15
  20:10 13.7 12.5 84 12 0.0 0.6 20:10
  20:05 13.7 12.6 83 12 0.0 0.7 20:05
  20:00 13.8 12.6 83 12 0.0 0.9 20:00
25.09.2017 19:55 13.8 12.7 82 11 0.0 0.9 19:55
  19:50 13.9 12.8 82 11 0.0 1.0 19:50
  19:45 14.0 12.8 81 11 0.0 1.1 19:45
  19:40 13.9 12.7 81 11 0.0 1.0 19:40
  19:35 14.1 12.6 80 11 0.0 0.9 19:35
  19:30 14.1 12.5 80 10 0.0 0.8 19:30
  19:25 14.2 12.6 78 10 0.0 0.4 19:25
  19:20 14.4 13.0 77 9 0.0 0.5 19:20
  19:15 14.5 13.2 77 9 0.0 0.6 19:15
  19:10 14.6 13.5 76 9 0.0 1.0 19:10
  19:05 14.7 13.6 75 8 0.0 0.8 19:05
  19:00 14.9 13.9 74 8 0.0 0.8 19:00
  18:55 14.9 13.9 74 8 0.0 0.6 18:55
  18:50 15.0 14.1 74 8 0.0 0.5 18:50
  18:45 15.2 14.4 73 8 0.0 0.9 18:45
  18:40 15.3 14.7 72 8 0.0 1.1 18:40
  18:35 15.5 15.0 71 7 0.0 1.4 18:35
  18:30 15.6 15.3 71 7 0.0 1.3 18:30
  18:25 15.6 15.5 71 7 0.0 1.5 18:25
  18:20 15.7 15.8 70 7 0.0 1.5 18:20
  18:15 15.8 16.1 72 7 0.0 1.0 18:15
  18:10 15.8 16.0 71 7 0.0 1.0 18:10
  18:05 16.0 16.7 69 7 0.0 1.1 18:05
  18:00 16.2 17.1 68 7 0.0 1.3 18:00
25.09.2017 17:55 16.0 16.4 68 7 0.0 1.7 17:55
  17:50 16.0 16.4 68 7 0.0 1.3 17:50
  17:45 16.0 16.5 68 7 0.0 1.8 17:45
  17:40 16.1 16.6 68 7 0.0 1.5 17:40
  17:35 16.1 16.9 68 7 0.0 1.4 17:35
  17:30 16.2 17.0 67 7 0.0 1.2 17:30
  17:25 16.1 17.8 65 7 0.0 1.3 17:25
  17:20 16.1 17.3 67 7 0.0 1.4 17:20
  17:15 16.2 17.1 68 7 0.0 1.2 17:15
  17:10 16.3 17.2 67 7 0.0 1.4 17:10
  17:05 16.2 17.3 67 7 0.0 1.7 17:05
  17:00 16.2 17.4 65 7 0.0 1.7 17:00
  16:55 16.5 18.2 66 7 0.0 0.9 16:55
  16:50 16.4 17.3 64 7 0.0 1.6 16:50
  16:45 16.3 17.3 66 7 0.0 1.9 16:45
  16:40 16.3 17.3 66 7 0.0 2.1 16:40
  16:35 16.3 17.3 65 7 0.0 1.9 16:35
  16:30 16.2 17.3 66 7 0.0 1.2 16:30
  16:25 16.1 17.4 67 7 0.0 0.7 16:25
  16:20 15.9 17.0 67 7 0.0 0.8 16:20
  16:15 16.1 17.0 67 7 0.0 0.9 16:15
  16:10 16.1 16.9 67 7 0.0 1.0 16:10
  16:05 16.0 17.0 68 7 0.0 0.7 16:05
  16:00 16.1 17.0 69 7 0.0 0.7 16:00
25.09.2017 15:55 16.1 17.0 69 7 0.0 0.5 15:55
  15:50 16.0 16.9 70 7 0.0 0.5 15:50
  15:45 15.8 16.8 70 7 0.0 0.8 15:45
  15:40 16.0 16.9 70 7 0.0 1.1 15:40
  15:35 16.0 17.0 68 7 0.0 1.7 15:35
  15:30 16.2 19.0 69 7 0.0 1.6 15:30
  15:25 15.9 16.9 71 8 0.0 1.1 15:25
  15:20 15.7 16.4 71 8 0.0 1.3 15:20
  15:15 15.8 16.5 71 8 0.0 1.3 15:15
  15:10 15.8 16.6 70 8 0.0 1.5 15:10
  15:05 15.8 16.7 69 7 0.0 1.2 15:05
  15:00 15.9 16.7 70 8 0.0 1.6 15:00
  14:55 15.8 16.7 69 8 0.0 1.9 14:55
  14:50 15.9 17.4 68 8 0.0 2.2 14:50
  14:45 16.0 18.0 68 8 0.0 1.7 14:45
  14:40 16.1 18.8 67 8 0.0 1.7 14:40
  14:35 16.3 19.2 66 8 0.0 2.2 14:35
  14:30 16.4 21.6 64 7 0.0 1.4 14:30
  14:25 16.8 22.3 64 8 0.0 2.1 14:25
  14:20 17.2 22.2 67 8 0.0 1.8 14:20
  14:15 16.8 22.1 69 9 0.0 2.2 14:15
  14:10 16.1 21.3 70 10 0.0 2.2 14:10
  14:05 16.1 21.0 72 10 0.0 1.0 14:05
  14:00 16.0 21.1 72 11 0.0 2.1 14:00
25.09.2017 13:55 15.6 20.8 73 11 0.0 1.4 13:55
  13:50 15.9 20.9 75 12 0.0 2.0 13:50
  13:45 16.2 20.4 75 12 0.0 1.3 13:45
  13:40 16.1 20.4 78 13 0.0 0.8 13:40
  13:35 16.0 20.2 80 15 0.0 1.5 13:35
  13:30 15.9 20.2 83 16 0.0 1.5 13:30
  13:25 15.5 19.4 84 17 0.0 1.6 13:25
  13:20 15.3 19.2 85 18 0.0 2.2 13:20
  13:15 14.7 19.2 87 19 0.0 1.3 13:15
  13:10 15.0 19.3 90 20 0.0 1.5 13:10
  13:05 14.8 18.9 91 21 0.0 2.6 13:05
  13:00 14.6 17.6 96 24 0.0 2.1 13:00
  12:55 15.0 17.0 100 28 0.0 2.0 12:55
  12:50 14.7 16.5 100 31 0.0 1.5 12:50
  12:45 14.5 16.4 100 33 0.0 1.4 12:45
  12:40 13.9 16.1 100 36 0.0 1.5 12:40
  12:35 13.7 15.6 100 43 0.0 1.0 12:35
  12:30 13.3 15.2 100 46 0.0 0.5 12:30
  12:25 12.9 15.1 100 50 0.0 0.6 12:25
  12:20 13.0 15.4 100 53 0.0 1.3 12:20
  12:15 12.2 15.4 100 58 0.0 1.3 12:15
  12:10 11.4 15.2 100 59 0.0 1.4 12:10
  12:05 11.3 14.6 100 62 0.0 1.8 12:05
  12:00 10.8 13.5 100 88 0.0 1.4 12:00
25.09.2017 11:55 10.6 12.6 100 100 0.0 1.2 11:55
  11:50 10.6 12.4 100 100 0.0 1.6 11:50
  11:45 10.4 12.6 100 100 0.0 1.8 11:45
  11:40 10.4 12.4 100 100 0.0 1.6 11:40
  11:35 10.5 13.0 100 99 0.0 1.0 11:35
  11:30 10.5 13.5 100 99 0.0 1.0 11:30
  11:25 10.4 12.9 100 100 0.0 1.1 11:25
  11:20 10.2 12.6 100 100 0.0 1.5 11:20
  11:15 10.2 12.8 100 100 0.0 1.3 11:15
  11:10 10.1 12.1 100 100 0.0 0.9 11:10
  11:05 9.9 11.6 100 100 0.0 1.5 11:05
  11:00 9.9 11.7 100 100 0.0 1.7 11:00
  10:55 10.0 11.6 100 100 0.0 1.2 10:55
  10:50 9.9 11.5 100 100 0.0 1.0 10:50
  10:45 9.9 11.3 100 100 0.0 0.5 10:45
  10:40 9.7 11.1 100 100 0.0 0.8 10:40
  10:35 9.8 11.2 100 100 0.0 1.2 10:35
  10:30 9.7 10.9 100 100 0.0 0.9 10:30
  10:25 9.7 10.7 100 100 0.0 1.6 10:25
  10:20 9.4 10.5 100 100 0.0 2.1 10:20
  10:15 9.5 10.5 100 100 0.0 2.2 10:15
  10:10 9.4 10.3 100 100 0.0 2.5 10:10
  10:05 9.3 10.3 100 100 0.0 1.7 10:05
  10:00 9.3 10.3 100 100 0.0 1.6 10:00
25.09.2017 09:55 9.2 10.2 100 100 0.0 1.8 09:55
  09:50 9.2 10.1 100 100 0.0 1.5 09:50
  09:45 9.2 10.0 100 100 0.0 2.2 09:45
  09:40 9.2 10.0 100 100 0.0 2.1 09:40
  09:35 9.1 9.9 100 100 0.0 2.5 09:35
  09:30 9.2 9.9 100 100 0.0 2.6 09:30
  09:25 9.2 9.9 100 100 0.0 2.4 09:25
  09:20 9.3 10.0 100 100 0.0 1.8 09:20
  09:15 9.2 9.9 100 100 0.0 1.3 09:15
  09:10 9.2 9.8 100 100 0.0 1.5 09:10
  09:05 9.1 9.8 100 100 0.0 1.8 09:05
  09:00 9.2 9.8 100 100 0.0 2.3 09:00
  08:55 9.3 9.8 100 100 0.0 2.5 08:55
  08:50 9.2 9.8 100 100 0.0 2.1 08:50
  08:45 9.3 9.9 100 100 0.0 2.2 08:45
  08:40 9.3 9.8 100 100 0.0 1.7 08:40
  08:35 9.2 9.7 100 100 0.0 1.9 08:35
  08:30 9.2 9.6 100 100 0.0 1.8 08:30
  08:25 9.2 9.6 100 100 0.0 1.8 08:25
  08:20 9.3 9.7 100 100 0.0 1.8 08:20
  08:15 9.3 9.6 100 100 0.0 1.5 08:15
  08:10 9.3 9.6 100 100 0.0 1.6 08:10
  08:05 9.3 9.6 100 100 0.0 2.0 08:05
  08:00 9.2 9.5 100 100 0.0 1.7 08:00
25.09.2017 07:55 9.2 9.4 100 100 0.0 1.2 07:55
  07:50 9.1 9.3 100 100 0.0 1.3 07:50
  07:45 8.6 8.8 100 100 0.0 1.1 07:45
  07:40 7.1 7.5 100 100 0.0 0.1 07:40
  07:35 7.5 7.9 100 100 0.0 0.8 07:35
  07:30 8.4 8.7 100 100 0.0 1.9 07:30
  07:25 8.5 8.7 100 100 0.0 2.1 07:25
  07:20 7.7 7.7 100 100 0.0 1.5 07:20
  07:15 7.4 7.6 100 100 0.0 1.0 07:15
  07:10 7.3 7.6 100 100 0.0 1.1 07:10
  07:05 7.5 7.7 100 100 0.0 0.8 07:05
  07:00 7.8 7.9 100 100 0.0 0.9 07:00
  06:55 7.8 7.8 100 100 0.0 0.8 06:55
  06:50 7.1 7.3 100 100 0.0 0.2 06:50
  06:45 6.8 7.1 100 100 0.0 0.0 06:45
  06:40 6.8 7.0 100 100 0.0 0.0 06:40
  06:35 6.7 6.8 100 100 0.0 0.0 06:35
  06:30 6.5 6.6 100 100 0.0 0.0 06:30
  06:25 6.4 6.3 100 100 0.0 0.0 06:25
  06:20 6.2 6.1 100 100 0.0 0.0 06:20
  06:15 6.0 5.8 100 100 0.0 0.0 06:15
  06:10 6.1 5.6 100 100 0.0 0.0 06:10
  06:05 6.0 5.5 100 100 0.0 0.0 06:05
  06:00 6.1 5.3 100 100 0.0 0.0 06:00
25.09.2017 05:55 6.5 5.6 100 100 0.0 0.0 05:55
  05:50 6.5 5.6 100 100 0.0 0.0 05:50
  05:45 6.2 5.3 100 100 0.0 0.0 05:45
  05:40 5.9 5.4 100 100 0.0 0.0 05:40
  05:35 5.9 5.1 100 100 0.0 0.0 05:35
  05:30 5.7 5.1 100 100 0.0 0.0 05:30
  05:25 5.9 5.3 100 100 0.0 0.0 05:25
  05:20 7.8 6.6 100 100 0.0 0.3 05:20
  05:15 8.3 7.4 100 100 0.0 0.6 05:15
    Temp.
(2 m)
Temp.
(20 cm)
Luftfeuchte Blattnässe Nieder-
schlag
Wind  
[°C] [°C] [%] [%] [mm] [m/s]
 
  Ø 11.7 12.0 90 63 - 1.0 Ø
  Min. 5.7 5.1 - - - - Min.
  Max. 17.2 22.3 - - - - Max.
  - - - - 0.0 -
Quelle: Agrarmeteorologie Rheinland-Pfalz,
alle Angaben ohne Gewähr!
Zuletzt geändert: 26.09.17 - 05:29 Uhr